sensor_id;sensor_type;location;lat;lon;timestamp;P1;durP1;ratioP1;P2;durP2;ratioP2
9052;SDS011;4561;47.450;7.516;2023-03-01T00:00:34;21.27;;;19.00;;
9052;SDS011;4561;47.450;7.516;2023-03-01T00:03:55;24.07;;;21.57;;
9052;SDS011;4561;47.450;7.516;2023-03-01T00:07:16;23.93;;;20.70;;
9052;SDS011;4561;47.450;7.516;2023-03-01T00:10:36;23.90;;;20.93;;
9052;SDS011;4561;47.450;7.516;2023-03-01T00:13:57;22.83;;;20.43;;
9052;SDS011;4561;47.450;7.516;2023-03-01T00:17:23;23.87;;;20.93;;
9052;SDS011;4561;47.450;7.516;2023-03-01T00:20:52;23.27;;;20.90;;
9052;SDS011;4561;47.450;7.516;2023-03-01T00:24:18;23.33;;;20.93;;
9052;SDS011;4561;47.450;7.516;2023-03-01T00:27:43;22.47;;;20.07;;
9052;SDS011;4561;47.450;7.516;2023-03-01T00:31:10;22.70;;;20.33;;
9052;SDS011;4561;47.450;7.516;2023-03-01T00:34:37;28.43;;;20.93;;
9052;SDS011;4561;47.450;7.516;2023-03-01T00:37:59;24.83;;;20.67;;
9052;SDS011;4561;47.450;7.516;2023-03-01T00:41:24;23.93;;;21.30;;
9052;SDS011;4561;47.450;7.516;2023-03-01T00:44:48;22.70;;;20.30;;
9052;SDS011;4561;47.450;7.516;2023-03-01T00:48:11;22.77;;;20.33;;
9052;SDS011;4561;47.450;7.516;2023-03-01T00:51:32;23.07;;;20.57;;
9052;SDS011;4561;47.450;7.516;2023-03-01T00:54:55;24.37;;;21.77;;
9052;SDS011;4561;47.450;7.516;2023-03-01T00:58:18;26.30;;;22.00;;
9052;SDS011;4561;47.450;7.516;2023-03-01T01:01:41;22.77;;;20.37;;
9052;SDS011;4561;47.450;7.516;2023-03-01T01:05:02;22.87;;;20.47;;
9052;SDS011;4561;47.450;7.516;2023-03-01T01:08:22;22.80;;;20.47;;
9052;SDS011;4561;47.450;7.516;2023-03-01T01:11:44;23.73;;;21.23;;
9052;SDS011;4561;47.450;7.516;2023-03-01T01:15:14;24.03;;;20.93;;
9052;SDS011;4561;47.450;7.516;2023-03-01T01:18:36;23.23;;;20.83;;
9052;SDS011;4561;47.450;7.516;2023-03-01T01:21:56;23.67;;;20.97;;
9052;SDS011;4561;47.450;7.516;2023-03-01T01:25:17;24.47;;;21.67;;
9052;SDS011;4561;47.450;7.516;2023-03-01T01:28:40;24.40;;;21.80;;
9052;SDS011;4561;47.450;7.516;2023-03-01T01:32:04;24.40;;;21.47;;
9052;SDS011;4561;47.450;7.516;2023-03-01T01:35:25;24.23;;;21.33;;
9052;SDS011;4561;47.450;7.516;2023-03-01T01:38:45;25.13;;;22.03;;
9052;SDS011;4561;47.450;7.516;2023-03-01T01:42:05;25.10;;;22.47;;
9052;SDS011;4561;47.450;7.516;2023-03-01T01:45:33;23.93;;;21.50;;
9052;SDS011;4561;47.450;7.516;2023-03-01T01:48:58;23.77;;;21.33;;
9052;SDS011;4561;47.450;7.516;2023-03-01T01:52:24;24.77;;;21.97;;
9052;SDS011;4561;47.450;7.516;2023-03-01T01:55:51;23.73;;;21.23;;
9052;SDS011;4561;47.450;7.516;2023-03-01T01:59:17;24.53;;;21.37;;
9052;SDS011;4561;47.450;7.516;2023-03-01T02:02:37;23.87;;;21.30;;
9052;SDS011;4561;47.450;7.516;2023-03-01T02:06:00;23.70;;;21.23;;
9052;SDS011;4561;47.450;7.516;2023-03-01T02:09:25;24.13;;;21.73;;
9052;SDS011;4561;47.450;7.516;2023-03-01T02:12:46;24.17;;;21.53;;
9052;SDS011;4561;47.450;7.516;2023-03-01T02:16:13;24.07;;;21.47;;
9052;SDS011;4561;47.450;7.516;2023-03-01T02:23:27;26.93;;;22.63;;
9052;SDS011;4561;47.450;7.516;2023-03-01T02:26:49;26.47;;;21.27;;
9052;SDS011;4561;47.450;7.516;2023-03-01T02:30:12;25.97;;;21.00;;
9052;SDS011;4561;47.450;7.516;2023-03-01T02:33:36;25.03;;;22.10;;
9052;SDS011;4561;47.450;7.516;2023-03-01T02:37:05;23.73;;;21.17;;
9052;SDS011;4561;47.450;7.516;2023-03-01T02:40:29;23.43;;;20.97;;
9052;SDS011;4561;47.450;7.516;2023-03-01T02:43:50;25.63;;;22.37;;
9052;SDS011;4561;47.450;7.516;2023-03-01T02:47:11;25.57;;;21.60;;
9052;SDS011;4561;47.450;7.516;2023-03-01T02:57:35;23.50;;;21.00;;
9052;SDS011;4561;47.450;7.516;2023-03-01T03:01:03;26.73;;;21.90;;
9052;SDS011;4561;47.450;7.516;2023-03-01T03:04:24;23.83;;;21.07;;
9052;SDS011;4561;47.450;7.516;2023-03-01T03:07:44;25.20;;;21.70;;
9052;SDS011;4561;47.450;7.516;2023-03-01T03:11:05;23.10;;;20.60;;
9052;SDS011;4561;47.450;7.516;2023-03-01T03:14:26;24.50;;;21.73;;
9052;SDS011;4561;47.450;7.516;2023-03-01T03:17:51;23.87;;;21.37;;
9052;SDS011;4561;47.450;7.516;2023-03-01T03:21:12;24.93;;;21.90;;
9052;SDS011;4561;47.450;7.516;2023-03-01T03:24:37;23.47;;;20.67;;
9052;SDS011;4561;47.450;7.516;2023-03-01T03:27:58;24.00;;;20.67;;
9052;SDS011;4561;47.450;7.516;2023-03-01T03:31:18;26.77;;;22.37;;
9052;SDS011;4561;47.450;7.516;2023-03-01T03:34:41;25.57;;;22.60;;
9052;SDS011;4561;47.450;7.516;2023-03-01T03:38:03;27.53;;;22.87;;
9052;SDS011;4561;47.450;7.516;2023-03-01T03:41:37;24.67;;;22.07;;
9052;SDS011;4561;47.450;7.516;2023-03-01T03:45:00;25.07;;;22.37;;
9052;SDS011;4561;47.450;7.516;2023-03-01T03:48:25;24.87;;;22.23;;
9052;SDS011;4561;47.450;7.516;2023-03-01T03:51:46;26.83;;;23.20;;
9052;SDS011;4561;47.450;7.516;2023-03-01T03:55:12;24.23;;;21.23;;
9052;SDS011;4561;47.450;7.516;2023-03-01T03:58:32;25.93;;;22.67;;
9052;SDS011;4561;47.450;7.516;2023-03-01T04:01:55;24.17;;;21.57;;
9052;SDS011;4561;47.450;7.516;2023-03-01T04:05:16;25.13;;;22.53;;
9052;SDS011;4561;47.450;7.516;2023-03-01T04:08:37;29.47;;;22.47;;
9052;SDS011;4561;47.450;7.516;2023-03-01T04:12:01;24.40;;;21.80;;
9052;SDS011;4561;47.450;7.516;2023-03-01T04:15:25;24.80;;;22.20;;
9052;SDS011;4561;47.450;7.516;2023-03-01T04:18:50;24.53;;;21.93;;
9052;SDS011;4561;47.450;7.516;2023-03-01T04:22:10;25.60;;;22.60;;
9052;SDS011;4561;47.450;7.516;2023-03-01T04:25:31;25.87;;;23.07;;
9052;SDS011;4561;47.450;7.516;2023-03-01T04:28:51;24.60;;;21.90;;
9052;SDS011;4561;47.450;7.516;2023-03-01T04:32:16;25.67;;;22.90;;
9052;SDS011;4561;47.450;7.516;2023-03-01T04:35:38;24.90;;;22.17;;
9052;SDS011;4561;47.450;7.516;2023-03-01T04:39:01;26.10;;;23.23;;
9052;SDS011;4561;47.450;7.516;2023-03-01T04:42:34;25.87;;;23.17;;
9052;SDS011;4561;47.450;7.516;2023-03-01T04:45:54;25.00;;;22.33;;
9052;SDS011;4561;47.450;7.516;2023-03-01T04:49:14;25.37;;;22.70;;
9052;SDS011;4561;47.450;7.516;2023-03-01T04:52:35;27.00;;;22.97;;
9052;SDS011;4561;47.450;7.516;2023-03-01T04:55:56;25.60;;;22.80;;
9052;SDS011;4561;47.450;7.516;2023-03-01T04:59:19;26.20;;;23.07;;
9052;SDS011;4561;47.450;7.516;2023-03-01T05:02:42;26.50;;;22.57;;
9052;SDS011;4561;47.450;7.516;2023-03-01T05:06:03;27.17;;;23.07;;
9052;SDS011;4561;47.450;7.516;2023-03-01T05:09:23;26.60;;;23.33;;
9052;SDS011;4561;47.450;7.516;2023-03-01T05:12:47;25.40;;;22.57;;
9052;SDS011;4561;47.450;7.516;2023-03-01T05:16:09;27.53;;;24.33;;
9052;SDS011;4561;47.450;7.516;2023-03-01T05:19:31;25.27;;;21.57;;
9052;SDS011;4561;47.450;7.516;2023-03-01T05:22:54;27.67;;;23.10;;
9052;SDS011;4561;47.450;7.516;2023-03-01T05:26:27;26.37;;;23.30;;
9052;SDS011;4561;47.450;7.516;2023-03-01T05:29:48;24.53;;;21.93;;
9052;SDS011;4561;47.450;7.516;2023-03-01T05:33:08;28.10;;;23.97;;
9052;SDS011;4561;47.450;7.516;2023-03-01T05:36:37;26.57;;;23.17;;
9052;SDS011;4561;47.450;7.516;2023-03-01T05:39:58;26.10;;;23.30;;
9052;SDS011;4561;47.450;7.516;2023-03-01T05:43:18;26.50;;;22.67;;
9052;SDS011;4561;47.450;7.516;2023-03-01T05:46:39;26.07;;;22.67;;
9052;SDS011;4561;47.450;7.516;2023-03-01T05:49:59;25.13;;;22.20;;
9052;SDS011;4561;47.450;7.516;2023-03-01T05:53:21;26.20;;;22.83;;
9052;SDS011;4561;47.450;7.516;2023-03-01T05:56:44;27.50;;;23.60;;
9052;SDS011;4561;47.450;7.516;2023-03-01T06:00:07;25.63;;;22.40;;
9052;SDS011;4561;47.450;7.516;2023-03-01T06:03:31;25.73;;;22.63;;
9052;SDS011;4561;47.450;7.516;2023-03-01T06:06:52;30.70;;;25.83;;
9052;SDS011;4561;47.450;7.516;2023-03-01T06:10:14;25.97;;;22.90;;
9052;SDS011;4561;47.450;7.516;2023-03-01T06:13:35;27.90;;;23.67;;
9052;SDS011;4561;47.450;7.516;2023-03-01T06:16:58;25.40;;;22.63;;
9052;SDS011;4561;47.450;7.516;2023-03-01T06:20:20;28.30;;;24.80;;
9052;SDS011;4561;47.450;7.516;2023-03-01T06:23:43;26.07;;;22.97;;
9052;SDS011;4561;47.450;7.516;2023-03-01T06:27:06;28.13;;;24.33;;
9052;SDS011;4561;47.450;7.516;2023-03-01T06:30:28;25.27;;;22.60;;
9052;SDS011;4561;47.450;7.516;2023-03-01T06:33:49;28.53;;;23.73;;
9052;SDS011;4561;47.450;7.516;2023-03-01T06:37:09;26.93;;;22.70;;
9052;SDS011;4561;47.450;7.516;2023-03-01T06:40:32;30.37;;;24.77;;
9052;SDS011;4561;47.450;7.516;2023-03-01T06:43:55;38.97;;;31.77;;
9052;SDS011;4561;47.450;7.516;2023-03-01T06:47:17;30.20;;;24.63;;
9052;SDS011;4561;47.450;7.516;2023-03-01T06:50:38;28.70;;;23.17;;
9052;SDS011;4561;47.450;7.516;2023-03-01T06:54:01;27.10;;;22.57;;
9052;SDS011;4561;47.450;7.516;2023-03-01T06:57:23;29.10;;;24.07;;
9052;SDS011;4561;47.450;7.516;2023-03-01T07:00:44;28.47;;;23.73;;
9052;SDS011;4561;47.450;7.516;2023-03-01T07:04:06;30.43;;;24.33;;
9052;SDS011;4561;47.450;7.516;2023-03-01T07:07:29;36.30;;;28.30;;
9052;SDS011;4561;47.450;7.516;2023-03-01T07:10:58;27.80;;;24.30;;
9052;SDS011;4561;47.450;7.516;2023-03-01T07:14:22;36.77;;;29.13;;
9052;SDS011;4561;47.450;7.516;2023-03-01T07:17:44;30.50;;;26.00;;
9052;SDS011;4561;47.450;7.516;2023-03-01T07:21:11;26.10;;;22.33;;
9052;SDS011;4561;47.450;7.516;2023-03-01T07:24:34;30.83;;;25.07;;
9052;SDS011;4561;47.450;7.516;2023-03-01T07:27:55;26.17;;;23.03;;
9052;SDS011;4561;47.450;7.516;2023-03-01T07:31:15;28.33;;;24.17;;
9052;SDS011;4561;47.450;7.516;2023-03-01T07:34:38;30.53;;;24.13;;
9052;SDS011;4561;47.450;7.516;2023-03-01T07:37:59;38.20;;;27.20;;
9052;SDS011;4561;47.450;7.516;2023-03-01T07:41:21;29.87;;;25.90;;
9052;SDS011;4561;47.450;7.516;2023-03-01T07:44:45;26.13;;;21.97;;
9052;SDS011;4561;47.450;7.516;2023-03-01T07:48:05;40.53;;;28.93;;
9052;SDS011;4561;47.450;7.516;2023-03-01T07:51:27;32.77;;;26.23;;
9052;SDS011;4561;47.450;7.516;2023-03-01T07:54:48;28.50;;;23.87;;
9052;SDS011;4561;47.450;7.516;2023-03-01T07:58:08;28.27;;;22.80;;
9052;SDS011;4561;47.450;7.516;2023-03-01T08:01:31;27.17;;;23.07;;
9052;SDS011;4561;47.450;7.516;2023-03-01T08:04:51;26.53;;;23.37;;
9052;SDS011;4561;47.450;7.516;2023-03-01T08:08:14;26.87;;;22.60;;
9052;SDS011;4561;47.450;7.516;2023-03-01T08:11:34;35.00;;;27.10;;
9052;SDS011;4561;47.450;7.516;2023-03-01T08:14:55;35.80;;;27.10;;
9052;SDS011;4561;47.450;7.516;2023-03-01T08:18:16;52.10;;;32.17;;
9052;SDS011;4561;47.450;7.516;2023-03-01T08:21:37;33.00;;;25.10;;
9052;SDS011;4561;47.450;7.516;2023-03-01T08:25:01;27.17;;;22.50;;
9052;SDS011;4561;47.450;7.516;2023-03-01T08:28:21;28.77;;;24.30;;
9052;SDS011;4561;47.450;7.516;2023-03-01T08:31:44;28.10;;;24.47;;
9052;SDS011;4561;47.450;7.516;2023-03-01T08:35:04;29.50;;;24.83;;
9052;SDS011;4561;47.450;7.516;2023-03-01T08:38:27;28.47;;;23.33;;
9052;SDS011;4561;47.450;7.516;2023-03-01T08:41:50;30.87;;;23.87;;
9052;SDS011;4561;47.450;7.516;2023-03-01T08:45:13;27.93;;;22.80;;
9052;SDS011;4561;47.450;7.516;2023-03-01T08:48:38;45.33;;;34.90;;
9052;SDS011;4561;47.450;7.516;2023-03-01T08:51:58;32.17;;;25.57;;
9052;SDS011;4561;47.450;7.516;2023-03-01T08:55:19;28.87;;;23.63;;
9052;SDS011;4561;47.450;7.516;2023-03-01T08:58:39;29.60;;;23.23;;
9052;SDS011;4561;47.450;7.516;2023-03-01T09:02:00;31.23;;;24.70;;
9052;SDS011;4561;47.450;7.516;2023-03-01T09:05:20;30.20;;;23.73;;
9052;SDS011;4561;47.450;7.516;2023-03-01T09:08:41;31.77;;;24.00;;
9052;SDS011;4561;47.450;7.516;2023-03-01T09:12:08;30.20;;;23.97;;
9052;SDS011;4561;47.450;7.516;2023-03-01T09:15:31;31.23;;;24.67;;
9052;SDS011;4561;47.450;7.516;2023-03-01T09:18:54;31.60;;;25.33;;
9052;SDS011;4561;47.450;7.516;2023-03-01T09:22:14;28.27;;;23.60;;
9052;SDS011;4561;47.450;7.516;2023-03-01T09:25:38;29.13;;;23.67;;
9052;SDS011;4561;47.450;7.516;2023-03-01T09:28:58;30.57;;;24.63;;
9052;SDS011;4561;47.450;7.516;2023-03-01T09:32:21;28.70;;;22.47;;
9052;SDS011;4561;47.450;7.516;2023-03-01T09:35:43;33.23;;;24.07;;
9052;SDS011;4561;47.450;7.516;2023-03-01T09:39:07;32.90;;;23.43;;
9052;SDS011;4561;47.450;7.516;2023-03-01T09:42:27;29.93;;;23.97;;
9052;SDS011;4561;47.450;7.516;2023-03-01T09:45:51;30.77;;;24.53;;
9052;SDS011;4561;47.450;7.516;2023-03-01T09:49:20;29.33;;;23.90;;
9052;SDS011;4561;47.450;7.516;2023-03-01T09:52:45;29.30;;;25.07;;
9052;SDS011;4561;47.450;7.516;2023-03-01T09:56:19;28.60;;;24.03;;
9052;SDS011;4561;47.450;7.516;2023-03-01T10:03:26;29.03;;;24.13;;
9052;SDS011;4561;47.450;7.516;2023-03-01T10:06:55;33.57;;;24.43;;
9052;SDS011;4561;47.450;7.516;2023-03-01T10:10:32;28.97;;;23.57;;
9052;SDS011;4561;47.450;7.516;2023-03-01T10:13:59;28.77;;;23.67;;
9052;SDS011;4561;47.450;7.516;2023-03-01T10:17:35;28.67;;;24.00;;
9052;SDS011;4561;47.450;7.516;2023-03-01T10:21:01;27.10;;;23.03;;
9052;SDS011;4561;47.450;7.516;2023-03-01T10:24:52;31.53;;;24.37;;
9052;SDS011;4561;47.450;7.516;2023-03-01T10:28:17;28.97;;;23.37;;
9052;SDS011;4561;47.450;7.516;2023-03-01T10:31:46;28.67;;;22.80;;
9052;SDS011;4561;47.450;7.516;2023-03-01T10:35:17;33.43;;;23.63;;
9052;SDS011;4561;47.450;7.516;2023-03-01T10:38:53;30.00;;;23.73;;
9052;SDS011;4561;47.450;7.516;2023-03-01T10:42:28;29.63;;;23.20;;
9052;SDS011;4561;47.450;7.516;2023-03-01T10:45:50;27.13;;;22.20;;
9052;SDS011;4561;47.450;7.516;2023-03-01T10:52:55;28.57;;;22.80;;
9052;SDS011;4561;47.450;7.516;2023-03-01T10:56:18;28.77;;;23.60;;
9052;SDS011;4561;47.450;7.516;2023-03-01T10:59:39;29.43;;;23.07;;
9052;SDS011;4561;47.450;7.516;2023-03-01T11:06:23;31.07;;;24.03;;
9052;SDS011;4561;47.450;7.516;2023-03-01T11:09:47;27.73;;;23.80;;
9052;SDS011;4561;47.450;7.516;2023-03-01T11:13:18;30.77;;;24.37;;
9052;SDS011;4561;47.450;7.516;2023-03-01T11:16:40;30.67;;;24.70;;
9052;SDS011;4561;47.450;7.516;2023-03-01T11:20:14;29.63;;;23.10;;
9052;SDS011;4561;47.450;7.516;2023-03-01T11:23:36;26.63;;;22.70;;
9052;SDS011;4561;47.450;7.516;2023-03-01T11:26:57;28.90;;;22.57;;
9052;SDS011;4561;47.450;7.516;2023-03-01T11:33:50;28.60;;;23.87;;
9052;SDS011;4561;47.450;7.516;2023-03-01T11:38:03;30.53;;;22.93;;
9052;SDS011;4561;47.450;7.516;2023-03-01T11:41:18;28.67;;;22.87;;
9052;SDS011;4561;47.450;7.516;2023-03-01T11:44:44;28.43;;;22.80;;
9052;SDS011;4561;47.450;7.516;2023-03-01T11:48:17;26.27;;;21.97;;
9052;SDS011;4561;47.450;7.516;2023-03-01T12:13:13;30.67;;;23.80;;
9052;SDS011;4561;47.450;7.516;2023-03-01T12:16:47;28.00;;;21.83;;
9052;SDS011;4561;47.450;7.516;2023-03-01T12:31:36;28.40;;;22.80;;
9052;SDS011;4561;47.450;7.516;2023-03-01T12:46:46;27.50;;;21.57;;
9052;SDS011;4561;47.450;7.516;2023-03-01T12:50:19;28.00;;;21.40;;
9052;SDS011;4561;47.450;7.516;2023-03-01T12:53:43;27.67;;;21.87;;
9052;SDS011;4561;47.450;7.516;2023-03-01T12:57:15;26.23;;;21.53;;
9052;SDS011;4561;47.450;7.516;2023-03-01T13:00:47;27.33;;;20.97;;
9052;SDS011;4561;47.450;7.516;2023-03-01T13:11:34;26.60;;;22.53;;
9052;SDS011;4561;47.450;7.516;2023-03-01T13:14:55;25.47;;;21.63;;
9052;SDS011;4561;47.450;7.516;2023-03-01T13:21:35;27.70;;;21.60;;
9052;SDS011;4561;47.450;7.516;2023-03-01T13:25:29;32.37;;;23.33;;
9052;SDS011;4561;47.450;7.516;2023-03-01T13:32:18;24.57;;;21.57;;
9052;SDS011;4561;47.450;7.516;2023-03-01T13:35:42;30.57;;;22.97;;
9052;SDS011;4561;47.450;7.516;2023-03-01T13:39:49;27.93;;;21.27;;
9052;SDS011;4561;47.450;7.516;2023-03-01T13:42:52;25.87;;;21.63;;
9052;SDS011;4561;47.450;7.516;2023-03-01T13:53:09;25.07;;;20.60;;
9052;SDS011;4561;47.450;7.516;2023-03-01T13:56:36;25.07;;;21.60;;
9052;SDS011;4561;47.450;7.516;2023-03-01T13:59:59;27.53;;;21.43;;
9052;SDS011;4561;47.450;7.516;2023-03-01T14:03:19;28.17;;;21.77;;
9052;SDS011;4561;47.450;7.516;2023-03-01T14:06:40;26.10;;;20.73;;
9052;SDS011;4561;47.450;7.516;2023-03-01T14:10:01;29.00;;;20.73;;
9052;SDS011;4561;47.450;7.516;2023-03-01T14:17:03;25.17;;;21.87;;
9052;SDS011;4561;47.450;7.516;2023-03-01T14:20:38;27.03;;;21.33;;
9052;SDS011;4561;47.450;7.516;2023-03-01T14:24:00;27.93;;;21.37;;
9052;SDS011;4561;47.450;7.516;2023-03-01T14:27:20;26.73;;;21.30;;
9052;SDS011;4561;47.450;7.516;2023-03-01T14:30:46;26.63;;;22.13;;
9052;SDS011;4561;47.450;7.516;2023-03-01T14:34:18;27.00;;;22.30;;
9052;SDS011;4561;47.450;7.516;2023-03-01T14:37:40;26.60;;;21.10;;
9052;SDS011;4561;47.450;7.516;2023-03-01T14:41:02;24.83;;;21.13;;
9052;SDS011;4561;47.450;7.516;2023-03-01T14:44:25;25.47;;;22.23;;
9052;SDS011;4561;47.450;7.516;2023-03-01T14:47:45;26.13;;;21.93;;
9052;SDS011;4561;47.450;7.516;2023-03-01T14:51:06;23.93;;;21.00;;
9052;SDS011;4561;47.450;7.516;2023-03-01T14:54:27;24.87;;;21.43;;
9052;SDS011;4561;47.450;7.516;2023-03-01T14:58:02;25.00;;;20.83;;
9052;SDS011;4561;47.450;7.516;2023-03-01T15:01:26;24.20;;;20.87;;
9052;SDS011;4561;47.450;7.516;2023-03-01T15:04:47;29.33;;;22.47;;
9052;SDS011;4561;47.450;7.516;2023-03-01T15:08:19;28.33;;;23.80;;
9052;SDS011;4561;47.450;7.516;2023-03-01T15:11:41;26.10;;;21.50;;
9052;SDS011;4561;47.450;7.516;2023-03-01T15:15:36;29.40;;;24.50;;
9052;SDS011;4561;47.450;7.516;2023-03-01T15:18:55;23.67;;;20.97;;
9052;SDS011;4561;47.450;7.516;2023-03-01T15:22:25;25.63;;;21.83;;
9052;SDS011;4561;47.450;7.516;2023-03-01T15:25:49;27.73;;;21.40;;
9052;SDS011;4561;47.450;7.516;2023-03-01T15:29:19;26.00;;;20.80;;
9052;SDS011;4561;47.450;7.516;2023-03-01T15:32:40;26.63;;;19.40;;
9052;SDS011;4561;47.450;7.516;2023-03-01T15:36:03;24.67;;;20.97;;
9052;SDS011;4561;47.450;7.516;2023-03-01T15:39:54;25.43;;;22.47;;
9052;SDS011;4561;47.450;7.516;2023-03-01T15:47:02;23.77;;;20.93;;
9052;SDS011;4561;47.450;7.516;2023-03-01T15:50:41;27.80;;;22.00;;
9052;SDS011;4561;47.450;7.516;2023-03-01T15:54:05;26.33;;;21.40;;
9052;SDS011;4561;47.450;7.516;2023-03-01T15:57:27;24.47;;;20.63;;
9052;SDS011;4561;47.450;7.516;2023-03-01T16:00:48;28.03;;;21.77;;
9052;SDS011;4561;47.450;7.516;2023-03-01T16:04:11;32.30;;;22.77;;
9052;SDS011;4561;47.450;7.516;2023-03-01T16:07:36;25.03;;;21.17;;
9052;SDS011;4561;47.450;7.516;2023-03-01T16:10:59;25.90;;;21.37;;
9052;SDS011;4561;47.450;7.516;2023-03-01T16:14:23;25.53;;;20.17;;
9052;SDS011;4561;47.450;7.516;2023-03-01T16:17:43;35.47;;;27.40;;
9052;SDS011;4561;47.450;7.516;2023-03-01T16:21:04;26.73;;;21.87;;
9052;SDS011;4561;47.450;7.516;2023-03-01T16:24:25;25.47;;;21.07;;
9052;SDS011;4561;47.450;7.516;2023-03-01T16:27:46;25.50;;;21.33;;
9052;SDS011;4561;47.450;7.516;2023-03-01T16:31:11;25.73;;;21.93;;
9052;SDS011;4561;47.450;7.516;2023-03-01T16:34:37;26.03;;;21.80;;
9052;SDS011;4561;47.450;7.516;2023-03-01T16:37:59;25.73;;;22.90;;
9052;SDS011;4561;47.450;7.516;2023-03-01T16:41:22;28.13;;;24.40;;
9052;SDS011;4561;47.450;7.516;2023-03-01T16:44:46;25.57;;;21.30;;
9052;SDS011;4561;47.450;7.516;2023-03-01T16:48:08;30.60;;;22.87;;
9052;SDS011;4561;47.450;7.516;2023-03-01T16:51:29;26.03;;;23.23;;
9052;SDS011;4561;47.450;7.516;2023-03-01T16:54:54;27.03;;;22.30;;
9052;SDS011;4561;47.450;7.516;2023-03-01T16:58:14;27.40;;;23.37;;
9052;SDS011;4561;47.450;7.516;2023-03-01T17:01:37;29.07;;;23.73;;
9052;SDS011;4561;47.450;7.516;2023-03-01T17:04:59;28.73;;;24.07;;
9052;SDS011;4561;47.450;7.516;2023-03-01T17:08:19;28.63;;;22.67;;
9052;SDS011;4561;47.450;7.516;2023-03-01T17:11:40;25.83;;;23.07;;
9052;SDS011;4561;47.450;7.516;2023-03-01T17:15:00;25.60;;;22.80;;
9052;SDS011;4561;47.450;7.516;2023-03-01T17:18:20;27.63;;;23.40;;
9052;SDS011;4561;47.450;7.516;2023-03-01T17:21:41;31.40;;;25.63;;
9052;SDS011;4561;47.450;7.516;2023-03-01T17:25:01;30.60;;;26.83;;
9052;SDS011;4561;47.450;7.516;2023-03-01T17:28:26;35.77;;;29.37;;
9052;SDS011;4561;47.450;7.516;2023-03-01T17:31:50;33.67;;;28.53;;
9052;SDS011;4561;47.450;7.516;2023-03-01T17:35:10;34.73;;;28.57;;
9052;SDS011;4561;47.450;7.516;2023-03-01T17:38:31;30.87;;;24.10;;
9052;SDS011;4561;47.450;7.516;2023-03-01T17:41:56;27.77;;;23.60;;
9052;SDS011;4561;47.450;7.516;2023-03-01T17:45:16;26.20;;;22.93;;
9052;SDS011;4561;47.450;7.516;2023-03-01T17:48:40;32.60;;;24.67;;
9052;SDS011;4561;47.450;7.516;2023-03-01T17:52:00;27.83;;;23.10;;
9052;SDS011;4561;47.450;7.516;2023-03-01T17:55:21;24.40;;;21.70;;
9052;SDS011;4561;47.450;7.516;2023-03-01T17:58:41;26.13;;;23.23;;
9052;SDS011;4561;47.450;7.516;2023-03-01T18:02:02;29.80;;;23.03;;
9052;SDS011;4561;47.450;7.516;2023-03-01T18:05:26;27.40;;;23.53;;
9052;SDS011;4561;47.450;7.516;2023-03-01T18:08:47;27.23;;;23.73;;
9052;SDS011;4561;47.450;7.516;2023-03-01T18:12:09;29.13;;;22.43;;
9052;SDS011;4561;47.450;7.516;2023-03-01T18:15:32;26.73;;;23.03;;
9052;SDS011;4561;47.450;7.516;2023-03-01T18:18:53;27.17;;;23.30;;
9052;SDS011;4561;47.450;7.516;2023-03-01T18:22:14;28.47;;;22.83;;
9052;SDS011;4561;47.450;7.516;2023-03-01T18:25:37;31.33;;;24.77;;
9052;SDS011;4561;47.450;7.516;2023-03-01T18:29:01;28.10;;;23.13;;
9052;SDS011;4561;47.450;7.516;2023-03-01T18:32:23;28.17;;;24.33;;
9052;SDS011;4561;47.450;7.516;2023-03-01T18:35:45;26.73;;;22.27;;
9052;SDS011;4561;47.450;7.516;2023-03-01T18:39:08;25.33;;;22.70;;
9052;SDS011;4561;47.450;7.516;2023-03-01T18:42:29;27.63;;;23.07;;
9052;SDS011;4561;47.450;7.516;2023-03-01T18:45:55;26.87;;;23.20;;
9052;SDS011;4561;47.450;7.516;2023-03-01T18:49:17;24.80;;;22.10;;
9052;SDS011;4561;47.450;7.516;2023-03-01T18:52:37;32.97;;;24.40;;
9052;SDS011;4561;47.450;7.516;2023-03-01T18:55:58;29.87;;;24.20;;
9052;SDS011;4561;47.450;7.516;2023-03-01T18:59:19;28.37;;;23.60;;
9052;SDS011;4561;47.450;7.516;2023-03-01T19:02:41;29.53;;;25.07;;
9052;SDS011;4561;47.450;7.516;2023-03-01T19:06:04;26.87;;;23.90;;
9052;SDS011;4561;47.450;7.516;2023-03-01T19:09:24;28.27;;;24.03;;
9052;SDS011;4561;47.450;7.516;2023-03-01T19:12:45;26.53;;;22.97;;
9052;SDS011;4561;47.450;7.516;2023-03-01T19:16:07;27.93;;;23.47;;
9052;SDS011;4561;47.450;7.516;2023-03-01T19:19:31;27.77;;;23.57;;
9052;SDS011;4561;47.450;7.516;2023-03-01T19:22:52;26.90;;;22.67;;
9052;SDS011;4561;47.450;7.516;2023-03-01T19:26:17;30.10;;;25.00;;
9052;SDS011;4561;47.450;7.516;2023-03-01T19:29:38;31.07;;;24.83;;
9052;SDS011;4561;47.450;7.516;2023-03-01T19:32:59;28.97;;;23.67;;
9052;SDS011;4561;47.450;7.516;2023-03-01T19:36:22;27.37;;;23.77;;
9052;SDS011;4561;47.450;7.516;2023-03-01T19:39:51;26.73;;;23.20;;
9052;SDS011;4561;47.450;7.516;2023-03-01T19:43:11;28.50;;;25.20;;
9052;SDS011;4561;47.450;7.516;2023-03-01T19:46:32;28.63;;;25.10;;
9052;SDS011;4561;47.450;7.516;2023-03-01T19:49:52;29.20;;;24.37;;
9052;SDS011;4561;47.450;7.516;2023-03-01T19:53:13;29.47;;;25.33;;
9052;SDS011;4561;47.450;7.516;2023-03-01T19:56:34;28.07;;;23.47;;
9052;SDS011;4561;47.450;7.516;2023-03-01T19:59:55;31.80;;;26.83;;
9052;SDS011;4561;47.450;7.516;2023-03-01T20:03:15;31.53;;;25.27;;
9052;SDS011;4561;47.450;7.516;2023-03-01T20:06:35;28.73;;;25.57;;
9052;SDS011;4561;47.450;7.516;2023-03-01T20:09:56;30.47;;;25.53;;
9052;SDS011;4561;47.450;7.516;2023-03-01T20:13:21;29.90;;;24.63;;
9052;SDS011;4561;47.450;7.516;2023-03-01T20:16:44;28.77;;;24.60;;
9052;SDS011;4561;47.450;7.516;2023-03-01T20:20:04;33.77;;;28.57;;
9052;SDS011;4561;47.450;7.516;2023-03-01T20:23:25;30.67;;;26.10;;
9052;SDS011;4561;47.450;7.516;2023-03-01T20:26:46;27.77;;;24.77;;
9052;SDS011;4561;47.450;7.516;2023-03-01T20:30:06;31.50;;;25.23;;
9052;SDS011;4561;47.450;7.516;2023-03-01T20:33:27;32.27;;;26.33;;
9052;SDS011;4561;47.450;7.516;2023-03-01T20:36:48;30.97;;;27.30;;
9052;SDS011;4561;47.450;7.516;2023-03-01T20:40:09;32.37;;;26.07;;
9052;SDS011;4561;47.450;7.516;2023-03-01T20:43:33;29.60;;;25.30;;
9052;SDS011;4561;47.450;7.516;2023-03-01T20:46:54;30.57;;;25.03;;
9052;SDS011;4561;47.450;7.516;2023-03-01T20:50:14;28.70;;;25.23;;
9052;SDS011;4561;47.450;7.516;2023-03-01T20:53:35;30.03;;;26.17;;
9052;SDS011;4561;47.450;7.516;2023-03-01T20:57:00;29.37;;;25.63;;
9052;SDS011;4561;47.450;7.516;2023-03-01T21:00:20;32.47;;;26.87;;
9052;SDS011;4561;47.450;7.516;2023-03-01T21:03:43;29.47;;;25.33;;
9052;SDS011;4561;47.450;7.516;2023-03-01T21:07:04;29.70;;;25.00;;
9052;SDS011;4561;47.450;7.516;2023-03-01T21:10:24;29.00;;;25.87;;
9052;SDS011;4561;47.450;7.516;2023-03-01T21:13:44;28.57;;;25.10;;
9052;SDS011;4561;47.450;7.516;2023-03-01T21:17:08;32.17;;;26.03;;
9052;SDS011;4561;47.450;7.516;2023-03-01T21:20:29;31.37;;;26.43;;
9052;SDS011;4561;47.450;7.516;2023-03-01T21:23:49;30.50;;;26.47;;
9052;SDS011;4561;47.450;7.516;2023-03-01T21:27:09;32.53;;;26.37;;
9052;SDS011;4561;47.450;7.516;2023-03-01T21:30:30;31.07;;;26.27;;
9052;SDS011;4561;47.450;7.516;2023-03-01T21:33:51;31.73;;;27.07;;
9052;SDS011;4561;47.450;7.516;2023-03-01T21:37:13;34.23;;;27.90;;
9052;SDS011;4561;47.450;7.516;2023-03-01T21:40:35;32.17;;;26.67;;
9052;SDS011;4561;47.450;7.516;2023-03-01T21:43:56;31.00;;;26.60;;
9052;SDS011;4561;47.450;7.516;2023-03-01T21:47:19;31.63;;;27.00;;
9052;SDS011;4561;47.450;7.516;2023-03-01T21:50:39;33.20;;;28.27;;
9052;SDS011;4561;47.450;7.516;2023-03-01T21:54:00;35.63;;;30.33;;
9052;SDS011;4561;47.450;7.516;2023-03-01T21:57:20;36.07;;;30.73;;
9052;SDS011;4561;47.450;7.516;2023-03-01T22:00:40;33.77;;;29.83;;
9052;SDS011;4561;47.450;7.516;2023-03-01T22:04:01;32.30;;;28.80;;